createdAt,value
2023-02-17T00:01:22.800Z,2.27
2023-02-17T00:06:31.615Z,1.77
2023-02-17T00:11:35.411Z,2.10
2023-02-17T00:16:39.017Z,2.20
2023-02-17T00:21:43.953Z,1.40
2023-02-17T00:26:47.923Z,2.20
2023-02-17T00:31:54.027Z,1.50
2023-02-17T00:37:01.172Z,1.77
2023-02-17T00:42:04.926Z,1.60
2023-02-17T00:47:08.538Z,1.50
2023-02-17T00:52:13.501Z,1.90
2023-02-17T00:57:17.055Z,1.73
2023-02-17T01:02:20.704Z,1.70
2023-02-17T01:07:25.757Z,1.60
2023-02-17T01:12:29.320Z,1.30
2023-02-17T01:17:32.907Z,1.50
2023-02-17T01:22:40.767Z,1.60
2023-02-17T01:27:44.394Z,2.40
2023-02-17T01:32:47.945Z,1.63
2023-02-17T01:37:53.345Z,1.50
2023-02-17T01:42:56.937Z,2.03
2023-02-17T01:48:06.810Z,1.87
2023-02-17T01:53:15.682Z,1.57
2023-02-17T01:58:21.908Z,1.30
2023-02-17T02:03:26.154Z,1.40
2023-02-17T02:08:38.884Z,0.97
2023-02-17T02:13:42.592Z,1.20
2023-02-17T02:18:56.750Z,1.20
2023-02-17T02:24:20.613Z,1.87
2023-02-17T02:29:51.276Z,0.80
2023-02-17T02:35:02.311Z,1.23
2023-02-17T02:40:09.994Z,1.30
2023-02-17T02:45:14.980Z,1.80
2023-02-17T02:50:24.279Z,1.33
2023-02-17T02:55:44.186Z,0.83
2023-02-17T03:00:56.108Z,1.50
2023-02-17T03:06:07.341Z,1.10
2023-02-17T03:11:11.431Z,1.17
2023-02-17T03:16:15.078Z,0.80
2023-02-17T03:21:20.719Z,1.03
2023-02-17T03:26:25.040Z,1.00
2023-02-17T03:31:30.780Z,1.10
2023-02-17T03:36:36.053Z,1.20
2023-02-17T03:41:39.612Z,1.20
2023-02-17T03:46:43.168Z,1.30
2023-02-17T03:51:48.174Z,0.80
2023-02-17T03:56:51.841Z,1.63
2023-02-17T04:01:55.530Z,0.80
2023-02-17T04:07:00.503Z,0.73
2023-02-17T04:12:04.213Z,1.10
2023-02-17T04:17:07.863Z,1.53
2023-02-17T04:22:12.856Z,1.33
2023-02-17T04:27:16.513Z,1.33
2023-02-17T04:32:20.074Z,0.70
2023-02-17T04:37:25.080Z,1.20
2023-02-17T04:42:28.717Z,0.67
2023-02-17T04:47:32.333Z,0.77
2023-02-17T04:52:37.530Z,1.13
2023-02-17T04:57:41.109Z,0.80
2023-02-17T05:02:44.709Z,0.90
2023-02-17T05:07:50.045Z,0.87
2023-02-17T05:12:53.658Z,0.60
2023-02-17T05:17:58.505Z,0.53
2023-02-17T05:23:03.508Z,0.70
2023-02-17T05:28:07.126Z,0.53
2023-02-17T05:33:10.737Z,0.67
2023-02-17T05:38:15.653Z,0.87
2023-02-17T05:43:19.263Z,0.73
2023-02-17T05:48:22.883Z,1.43
2023-02-17T05:53:28.349Z,0.97
2023-02-17T05:58:31.967Z,0.80
2023-02-17T06:03:35.635Z,0.60
2023-02-17T06:08:40.724Z,0.73
2023-02-17T06:13:44.396Z,1.80
2023-02-17T06:18:48.012Z,1.00
2023-02-17T06:23:53.011Z,0.93
2023-02-17T06:28:56.589Z,1.20
2023-02-17T06:34:00.187Z,0.50
2023-02-17T06:39:05.203Z,0.70
2023-02-17T06:44:08.830Z,1.07
2023-02-17T06:49:13.053Z,1.57
2023-02-17T06:54:18.025Z,1.00
2023-02-17T06:59:21.798Z,1.00
2023-02-17T07:04:25.443Z,2.23
2023-02-17T07:09:30.391Z,0.67
2023-02-17T07:14:35.167Z,0.80
2023-02-17T07:19:38.724Z,0.50
2023-02-17T07:24:43.983Z,1.00
2023-02-17T07:29:47.526Z,0.70
2023-02-17T07:34:51.185Z,0.80
2023-02-17T07:39:57.094Z,0.60
2023-02-17T07:45:01.007Z,0.77
2023-02-17T07:50:04.814Z,0.90
2023-02-17T07:55:10.065Z,1.63
2023-02-17T08:00:14.905Z,0.70
2023-02-17T08:05:18.567Z,0.60
2023-02-17T08:10:49.705Z,0.60
2023-02-17T08:15:53.533Z,1.00
2023-02-17T08:20:57.140Z,0.80
2023-02-17T08:26:02.266Z,0.80
2023-02-17T08:31:06.210Z,1.20
2023-02-17T08:36:11.200Z,1.27
2023-02-17T08:41:17.080Z,1.40
2023-02-17T08:46:21.659Z,1.30
2023-02-17T08:51:28.125Z,1.27
2023-02-17T08:56:34.065Z,1.13
2023-02-17T09:01:38.263Z,1.90
2023-02-17T09:06:43.888Z,4.57
2023-02-17T09:11:49.669Z,4.37
2023-02-17T09:16:54.957Z,3.90
2023-02-17T09:21:58.551Z,2.53
2023-02-17T09:27:04.114Z,1.40
2023-02-17T09:32:09.260Z,0.60
2023-02-17T09:37:13.276Z,1.37
2023-02-17T09:42:21.653Z,0.93
2023-02-17T09:47:30.498Z,1.27
2023-02-17T09:52:38.786Z,1.10
2023-02-17T09:57:52.417Z,0.70
2023-02-17T10:03:02.066Z,0.90
2023-02-17T10:08:12.354Z,1.10
2023-02-17T10:13:19.890Z,0.53
2023-02-17T10:18:32.629Z,0.87
2023-02-17T10:23:36.323Z,0.80
2023-02-17T10:28:50.800Z,0.40
2023-02-17T10:34:03.962Z,0.87
2023-02-17T10:39:14.792Z,0.50
2023-02-17T10:44:24.397Z,0.60
2023-02-17T10:49:31.200Z,0.53
2023-02-17T10:54:39.618Z,0.90
2023-02-17T10:59:46.213Z,0.70
2023-02-17T11:04:52.093Z,0.50
2023-02-17T11:10:00.995Z,0.50
2023-02-17T11:15:15.574Z,0.77
2023-02-17T11:20:32.002Z,0.40
2023-02-17T11:25:38.687Z,0.83
2023-02-17T11:30:52.115Z,0.40
2023-02-17T11:35:56.462Z,0.50
2023-02-17T11:41:02.003Z,0.60
2023-02-17T11:46:22.251Z,0.50
2023-02-17T11:51:33.451Z,1.90
2023-02-17T11:56:39.558Z,0.60
2023-02-17T12:02:03.432Z,0.63
2023-02-17T12:07:43.037Z,0.80
2023-02-17T12:13:02.002Z,0.67
2023-02-17T12:18:22.499Z,0.60
2023-02-17T12:23:42.542Z,1.13
2023-02-17T12:28:56.708Z,0.73
2023-02-17T12:34:08.486Z,1.30
2023-02-17T12:39:20.037Z,0.80
2023-02-17T12:44:27.281Z,1.13
2023-02-17T12:49:37.857Z,0.50
2023-02-17T12:54:49.244Z,0.67
2023-02-17T12:59:54.495Z,0.80
2023-02-17T13:05:05.887Z,0.60
2023-02-17T13:10:21.095Z,0.70
2023-02-17T13:15:32.012Z,0.60
2023-02-17T13:20:54.926Z,0.50
2023-02-17T13:26:27.496Z,0.63
2023-02-17T13:31:31.563Z,0.50
2023-02-17T13:36:38.693Z,0.50
2023-02-17T13:41:48.490Z,0.73
2023-02-17T13:46:53.433Z,1.27
2023-02-17T13:52:09.614Z,1.93
2023-02-17T13:57:27.190Z,2.57
2023-02-17T14:02:36.432Z,0.70
2023-02-17T14:07:41.489Z,1.57
2023-02-17T14:12:45.350Z,0.90
2023-02-17T14:17:49.061Z,1.93
2023-02-17T14:23:04.765Z,1.33
2023-02-17T14:28:20.837Z,2.63
2023-02-17T14:33:26.608Z,3.27
2023-02-17T14:38:35.036Z,0.80
2023-02-17T14:43:39.050Z,0.70
2023-02-17T14:48:42.650Z,2.00
2023-02-17T14:53:47.790Z,1.60
2023-02-17T14:58:52.989Z,1.33
2023-02-17T15:03:56.701Z,2.27
2023-02-17T15:09:02.258Z,2.30
2023-02-17T15:14:06.351Z,2.23
2023-02-17T15:19:10.343Z,1.47
2023-02-17T15:24:18.254Z,0.83
2023-02-17T15:29:24.160Z,1.83
2023-02-17T15:34:31.840Z,1.03
2023-02-17T15:39:36.790Z,1.87
2023-02-17T15:44:45.133Z,2.30
2023-02-17T15:49:49.045Z,0.90
2023-02-17T15:54:54.133Z,0.60
2023-02-17T15:59:57.883Z,0.40
2023-02-17T16:05:01.458Z,1.90
2023-02-17T16:10:07.500Z,0.67
2023-02-17T16:15:15.353Z,0.60
2023-02-17T16:20:21.955Z,0.60
2023-02-17T16:25:27.886Z,0.60
2023-02-17T16:30:33.534Z,1.07
2023-02-17T16:35:37.384Z,0.70
2023-02-17T16:40:47.341Z,2.10
2023-02-17T16:45:55.480Z,0.60
2023-02-17T16:50:59.586Z,0.70
2023-02-17T16:56:16.086Z,1.03
2023-02-17T17:01:19.633Z,0.70
2023-02-17T17:06:25.903Z,0.70
2023-02-17T17:11:31.891Z,0.50
2023-02-17T17:16:36.180Z,0.60
2023-02-17T17:21:39.770Z,0.50
2023-02-17T17:26:46.590Z,0.83
2023-02-17T17:31:50.293Z,0.33
2023-02-17T17:36:53.867Z,0.50
2023-02-17T17:41:59.022Z,0.60
2023-02-17T17:47:03.026Z,0.47
2023-02-17T17:52:06.635Z,0.50
2023-02-17T17:57:12.317Z,0.43
2023-02-17T18:02:15.963Z,0.70
2023-02-17T18:07:19.703Z,0.30
2023-02-17T18:12:25.017Z,0.53
2023-02-17T18:17:28.712Z,0.40
2023-02-17T18:22:32.564Z,0.60
2023-02-17T18:27:42.533Z,0.73
2023-02-17T18:32:46.818Z,0.43
2023-02-17T18:37:50.835Z,0.40
2023-02-17T18:42:56.336Z,0.70
2023-02-17T18:48:00.002Z,0.80
2023-02-17T18:53:05.263Z,0.50
2023-02-17T18:58:12.327Z,0.87
2023-02-17T19:03:16.122Z,1.20
2023-02-17T19:08:20.143Z,0.70
2023-02-17T19:13:25.085Z,0.57
2023-02-17T19:18:28.702Z,0.40
2023-02-17T19:23:32.227Z,0.67
2023-02-17T19:28:38.688Z,0.70
2023-02-17T19:33:42.927Z,0.70
2023-02-17T19:38:47.343Z,0.70
2023-02-17T19:43:52.259Z,0.80
2023-02-17T19:48:55.806Z,0.97
2023-02-17T19:53:59.700Z,0.80
2023-02-17T19:59:04.732Z,1.00
2023-02-17T20:04:09.261Z,1.27
2023-02-17T20:09:16.353Z,1.20
2023-02-17T20:14:21.460Z,1.07
2023-02-17T20:19:25.099Z,1.10
2023-02-17T20:24:28.690Z,1.10
2023-02-17T20:29:34.290Z,0.90
2023-02-17T20:34:39.904Z,1.13
2023-02-17T20:39:45.425Z,1.37
2023-02-17T20:44:51.007Z,0.80
2023-02-17T20:49:54.621Z,1.10
2023-02-17T20:54:58.197Z,1.27
2023-02-17T21:00:04.988Z,1.03
2023-02-17T21:05:09.234Z,1.30
2023-02-17T21:10:16.936Z,1.57
2023-02-17T21:15:22.189Z,1.20
2023-02-17T21:20:25.738Z,1.70
2023-02-17T21:25:29.373Z,1.50
2023-02-17T21:30:34.357Z,1.47
2023-02-17T21:35:37.923Z,1.87
2023-02-17T21:40:41.447Z,1.30
2023-02-17T21:45:46.480Z,1.63
2023-02-17T21:50:50.066Z,1.90
2023-02-17T21:55:53.590Z,1.30
2023-02-17T22:00:59.494Z,1.70
2023-02-17T22:06:12.914Z,1.20
2023-02-17T22:11:17.850Z,1.00
2023-02-17T22:16:23.535Z,1.50
2023-02-17T22:21:27.702Z,1.30
2023-02-17T22:26:31.446Z,1.33
2023-02-17T22:31:36.666Z,1.40
2023-02-17T22:36:40.699Z,1.30
2023-02-17T22:41:44.360Z,1.23
2023-02-17T22:46:49.306Z,1.53
2023-02-17T22:51:52.889Z,0.90
2023-02-17T22:56:56.497Z,1.00
2023-02-17T23:02:01.561Z,1.40
2023-02-17T23:07:05.189Z,0.90
2023-02-17T23:12:08.866Z,1.00
2023-02-17T23:17:14.959Z,1.20
2023-02-17T23:22:19.056Z,1.37
2023-02-17T23:27:23.048Z,1.50
2023-02-17T23:32:28.120Z,1.00
2023-02-17T23:37:31.727Z,1.20
2023-02-17T23:42:35.487Z,0.97
2023-02-17T23:47:40.481Z,1.60
2023-02-17T23:52:44.097Z,1.20
2023-02-17T23:57:47.634Z,1.87
